<?xml version="1.0" encoding="UTF-8" standalone="no" ?>
<gpx xmlns="http://www.topografix.com/GPX/1/1" xmlns:xsi="http://www.w3.org/2001/XMLSchema-instance" xsi:schemaLocation="http://www.topografix.com/GPX/1/1 http://www.topografix.com/GPX/1/1/gpx.xsd" version="1.1" creator="VisuGPX - https://www.visugpx.com">
  <metadata>
    <name>2022 10 22 trajet 23 rue de la fourmi 16 rue boucarié à pied</name>
    <desc><![CDATA[2022 10 22 trajet 23 rue de la fourmi 16 rue boucarié à pied]]></desc>
  </metadata>
  <trk>
    <name><![CDATA[2022 10 22 trajet 23 rue de la fourmi 16 rue boucarié à pied]]></name>
    <trkseg>
      <trkpt lat="43.42868" lon="3.73512">
        <ele>58</ele>
        <time>2022-10-22T15:22:42+02:00</time>
      </trkpt>
      <trkpt lat="43.42879" lon="3.73484">
        <ele>55</ele>
        <time>2022-10-22T15:23:05+02:00</time>
      </trkpt>
      <trkpt lat="43.42891" lon="3.73457">
        <ele>54</ele>
        <time>2022-10-22T15:23:24+02:00</time>
      </trkpt>
      <trkpt lat="43.42904" lon="3.7343">
        <ele>54</ele>
        <time>2022-10-22T15:23:43+02:00</time>
      </trkpt>
      <trkpt lat="43.42915" lon="3.73402">
        <ele>53</ele>
        <time>2022-10-22T15:24:03+02:00</time>
      </trkpt>
      <trkpt lat="43.4293" lon="3.73378">
        <ele>51</ele>
        <time>2022-10-22T15:24:22+02:00</time>
      </trkpt>
      <trkpt lat="43.42952" lon="3.73387">
        <ele>45</ele>
        <time>2022-10-22T15:24:49+02:00</time>
      </trkpt>
      <trkpt lat="43.42975" lon="3.73395">
        <ele>41</ele>
        <time>2022-10-22T15:25:07+02:00</time>
      </trkpt>
      <trkpt lat="43.42997" lon="3.73409">
        <ele>40</ele>
        <time>2022-10-22T15:25:24+02:00</time>
      </trkpt>
      <trkpt lat="43.43016" lon="3.73424">
        <ele>42</ele>
        <time>2022-10-22T15:25:38+02:00</time>
      </trkpt>
      <trkpt lat="43.43034" lon="3.73443">
        <ele>39</ele>
        <time>2022-10-22T15:25:55+02:00</time>
      </trkpt>
      <trkpt lat="43.43054" lon="3.73458">
        <ele>40</ele>
        <time>2022-10-22T15:26:13+02:00</time>
      </trkpt>
      <trkpt lat="43.43073" lon="3.73476">
        <ele>39</ele>
        <time>2022-10-22T15:26:31+02:00</time>
      </trkpt>
      <trkpt lat="43.43091" lon="3.73495">
        <ele>40</ele>
        <time>2022-10-22T15:26:52+02:00</time>
      </trkpt>
      <trkpt lat="43.43111" lon="3.73511">
        <ele>42</ele>
        <time>2022-10-22T15:27:09+02:00</time>
      </trkpt>
      <trkpt lat="43.43131" lon="3.73528">
        <ele>42</ele>
        <time>2022-10-22T15:27:26+02:00</time>
      </trkpt>
      <trkpt lat="43.43149" lon="3.73546">
        <ele>42</ele>
        <time>2022-10-22T15:27:44+02:00</time>
      </trkpt>
      <trkpt lat="43.43169" lon="3.73561">
        <ele>42</ele>
        <time>2022-10-22T15:28:03+02:00</time>
      </trkpt>
      <trkpt lat="43.43189" lon="3.73576">
        <ele>43</ele>
        <time>2022-10-22T15:28:22+02:00</time>
      </trkpt>
      <trkpt lat="43.4321" lon="3.73591">
        <ele>43</ele>
        <time>2022-10-22T15:28:42+02:00</time>
      </trkpt>
      <trkpt lat="43.4323" lon="3.73607">
        <ele>40</ele>
        <time>2022-10-22T15:29:00+02:00</time>
      </trkpt>
      <trkpt lat="43.4325" lon="3.73622">
        <ele>42</ele>
        <time>2022-10-22T15:29:17+02:00</time>
      </trkpt>
      <trkpt lat="43.43271" lon="3.73635">
        <ele>38</ele>
        <time>2022-10-22T15:29:34+02:00</time>
      </trkpt>
      <trkpt lat="43.43291" lon="3.73655">
        <ele>36</ele>
        <time>2022-10-22T15:29:54+02:00</time>
      </trkpt>
      <trkpt lat="43.43306" lon="3.73679">
        <ele>35</ele>
        <time>2022-10-22T15:30:12+02:00</time>
      </trkpt>
      <trkpt lat="43.43322" lon="3.73702">
        <ele>34</ele>
        <time>2022-10-22T15:30:33+02:00</time>
      </trkpt>
      <trkpt lat="43.43341" lon="3.73721">
        <ele>31</ele>
        <time>2022-10-22T15:30:51+02:00</time>
      </trkpt>
      <trkpt lat="43.43359" lon="3.7374">
        <ele>34</ele>
        <time>2022-10-22T15:31:09+02:00</time>
      </trkpt>
      <trkpt lat="43.43378" lon="3.73758">
        <ele>36</ele>
        <time>2022-10-22T15:31:27+02:00</time>
      </trkpt>
      <trkpt lat="43.43397" lon="3.73776">
        <ele>37</ele>
        <time>2022-10-22T15:31:46+02:00</time>
      </trkpt>
      <trkpt lat="43.43417" lon="3.73792">
        <ele>37</ele>
        <time>2022-10-22T15:32:05+02:00</time>
      </trkpt>
      <trkpt lat="43.4344" lon="3.73805">
        <ele>34</ele>
        <time>2022-10-22T15:32:28+02:00</time>
      </trkpt>
      <trkpt lat="43.43458" lon="3.73825">
        <ele>35</ele>
        <time>2022-10-22T15:32:44+02:00</time>
      </trkpt>
      <trkpt lat="43.43482" lon="3.73823">
        <ele>42</ele>
        <time>2022-10-22T15:33:07+02:00</time>
      </trkpt>
      <trkpt lat="43.43504" lon="3.73821">
        <ele>43</ele>
        <time>2022-10-22T15:33:31+02:00</time>
      </trkpt>
      <trkpt lat="43.43527" lon="3.73831">
        <ele>44</ele>
        <time>2022-10-22T15:33:50+02:00</time>
      </trkpt>
      <trkpt lat="43.43545" lon="3.73851">
        <ele>39</ele>
        <time>2022-10-22T15:34:10+02:00</time>
      </trkpt>
      <trkpt lat="43.43562" lon="3.73873">
        <ele>38</ele>
        <time>2022-10-22T15:34:28+02:00</time>
      </trkpt>
      <trkpt lat="43.43579" lon="3.73892">
        <ele>39</ele>
        <time>2022-10-22T15:34:45+02:00</time>
      </trkpt>
      <trkpt lat="43.43597" lon="3.73914">
        <ele>39</ele>
        <time>2022-10-22T15:35:03+02:00</time>
      </trkpt>
      <trkpt lat="43.43614" lon="3.73936">
        <ele>38</ele>
        <time>2022-10-22T15:35:26+02:00</time>
      </trkpt>
      <trkpt lat="43.43628" lon="3.73961">
        <ele>38</ele>
        <time>2022-10-22T15:35:47+02:00</time>
      </trkpt>
      <trkpt lat="43.43643" lon="3.73984">
        <ele>40</ele>
        <time>2022-10-22T15:36:06+02:00</time>
      </trkpt>
      <trkpt lat="43.43658" lon="3.74008">
        <ele>62</ele>
        <time>2022-10-22T15:36:19+02:00</time>
      </trkpt>
      <trkpt lat="43.43685" lon="3.74035">
        <ele>50</ele>
        <time>2022-10-22T15:36:43+02:00</time>
      </trkpt>
      <trkpt lat="43.437" lon="3.74059">
        <ele>41</ele>
        <time>2022-10-22T15:37:13+02:00</time>
      </trkpt>
      <trkpt lat="43.43714" lon="3.74084">
        <ele>37</ele>
        <time>2022-10-22T15:37:35+02:00</time>
      </trkpt>
      <trkpt lat="43.43733" lon="3.74103">
        <ele>35</ele>
        <time>2022-10-22T15:37:53+02:00</time>
      </trkpt>
      <trkpt lat="43.43746" lon="3.7413">
        <ele>36</ele>
        <time>2022-10-22T15:38:14+02:00</time>
      </trkpt>
      <trkpt lat="43.43757" lon="3.74159">
        <ele>34</ele>
        <time>2022-10-22T15:38:34+02:00</time>
      </trkpt>
      <trkpt lat="43.43768" lon="3.74186">
        <ele>34</ele>
        <time>2022-10-22T15:38:55+02:00</time>
      </trkpt>
      <trkpt lat="43.43776" lon="3.74216">
        <ele>31</ele>
        <time>2022-10-22T15:39:18+02:00</time>
      </trkpt>
      <trkpt lat="43.43782" lon="3.74246">
        <ele>29</ele>
        <time>2022-10-22T15:39:38+02:00</time>
      </trkpt>
      <trkpt lat="43.43793" lon="3.74276">
        <ele>27</ele>
        <time>2022-10-22T15:39:56+02:00</time>
      </trkpt>
      <trkpt lat="43.43796" lon="3.74309">
        <ele>29</ele>
        <time>2022-10-22T15:40:18+02:00</time>
      </trkpt>
      <trkpt lat="43.43808" lon="3.74336">
        <ele>26</ele>
        <time>2022-10-22T15:40:39+02:00</time>
      </trkpt>
      <trkpt lat="43.43813" lon="3.74366">
        <ele>27</ele>
        <time>2022-10-22T15:40:58+02:00</time>
      </trkpt>
      <trkpt lat="43.43823" lon="3.74396">
        <ele>31</ele>
        <time>2022-10-22T15:41:14+02:00</time>
      </trkpt>
      <trkpt lat="43.43843" lon="3.74411">
        <ele>32</ele>
        <time>2022-10-22T15:41:33+02:00</time>
      </trkpt>
      <trkpt lat="43.43862" lon="3.7443">
        <ele>28</ele>
        <time>2022-10-22T15:41:55+02:00</time>
      </trkpt>
      <trkpt lat="43.4388" lon="3.7445">
        <ele>32</ele>
        <time>2022-10-22T15:42:16+02:00</time>
      </trkpt>
      <trkpt lat="43.43896" lon="3.74472">
        <ele>28</ele>
        <time>2022-10-22T15:42:36+02:00</time>
      </trkpt>
      <trkpt lat="43.43896" lon="3.74503">
        <ele>29</ele>
        <time>2022-10-22T15:42:57+02:00</time>
      </trkpt>
      <trkpt lat="43.43885" lon="3.7453">
        <ele>34</ele>
        <time>2022-10-22T15:43:16+02:00</time>
      </trkpt>
      <trkpt lat="43.43904" lon="3.74549">
        <ele>33</ele>
        <time>2022-10-22T15:43:40+02:00</time>
      </trkpt>
      <trkpt lat="43.43919" lon="3.74573">
        <ele>32</ele>
        <time>2022-10-22T15:44:04+02:00</time>
      </trkpt>
      <trkpt lat="43.43936" lon="3.74595">
        <ele>32</ele>
        <time>2022-10-22T15:44:24+02:00</time>
      </trkpt>
      <trkpt lat="43.43951" lon="3.7462">
        <ele>33</ele>
        <time>2022-10-22T15:44:45+02:00</time>
      </trkpt>
      <trkpt lat="43.43968" lon="3.74642">
        <ele>35</ele>
        <time>2022-10-22T15:45:02+02:00</time>
      </trkpt>
      <trkpt lat="43.43986" lon="3.74664">
        <ele>38</ele>
        <time>2022-10-22T15:45:24+02:00</time>
      </trkpt>
      <trkpt lat="43.44003" lon="3.74686">
        <ele>36</ele>
        <time>2022-10-22T15:45:43+02:00</time>
      </trkpt>
      <trkpt lat="43.44015" lon="3.74713">
        <ele>32</ele>
        <time>2022-10-22T15:46:09+02:00</time>
      </trkpt>
      <trkpt lat="43.4403" lon="3.74739">
        <ele>34</ele>
        <time>2022-10-22T15:46:26+02:00</time>
      </trkpt>
      <trkpt lat="43.44044" lon="3.74763">
        <ele>37</ele>
        <time>2022-10-22T15:46:45+02:00</time>
      </trkpt>
      <trkpt lat="43.44062" lon="3.74786">
        <ele>39</ele>
        <time>2022-10-22T15:47:01+02:00</time>
      </trkpt>
      <trkpt lat="43.44079" lon="3.74808">
        <ele>40</ele>
        <time>2022-10-22T15:47:23+02:00</time>
      </trkpt>
      <trkpt lat="43.44095" lon="3.7483">
        <ele>41</ele>
        <time>2022-10-22T15:47:45+02:00</time>
      </trkpt>
      <trkpt lat="43.44109" lon="3.74857">
        <ele>41</ele>
        <time>2022-10-22T15:48:06+02:00</time>
      </trkpt>
      <trkpt lat="43.441" lon="3.74885">
        <ele>36</ele>
        <time>2022-10-22T15:48:40+02:00</time>
      </trkpt>
      <trkpt lat="43.44081" lon="3.74903">
        <ele>36</ele>
        <time>2022-10-22T15:49:01+02:00</time>
      </trkpt>
      <trkpt lat="43.44062" lon="3.7492">
        <ele>35</ele>
        <time>2022-10-22T15:49:19+02:00</time>
      </trkpt>
      <trkpt lat="43.44044" lon="3.7494">
        <ele>31</ele>
        <time>2022-10-22T15:49:41+02:00</time>
      </trkpt>
      <trkpt lat="43.44023" lon="3.74955">
        <ele>30</ele>
        <time>2022-10-22T15:50:02+02:00</time>
      </trkpt>
      <trkpt lat="43.44011" lon="3.74982">
        <ele>29</ele>
        <time>2022-10-22T15:50:20+02:00</time>
      </trkpt>
      <trkpt lat="43.44014" lon="3.75013">
        <ele>30</ele>
        <time>2022-10-22T15:50:40+02:00</time>
      </trkpt>
      <trkpt lat="43.44029" lon="3.75037">
        <ele>28</ele>
        <time>2022-10-22T15:50:59+02:00</time>
      </trkpt>
      <trkpt lat="43.44045" lon="3.7506">
        <ele>31</ele>
        <time>2022-10-22T15:51:21+02:00</time>
      </trkpt>
      <trkpt lat="43.44063" lon="3.75079">
        <ele>34</ele>
        <time>2022-10-22T15:51:40+02:00</time>
      </trkpt>
      <trkpt lat="43.44083" lon="3.75097">
        <ele>30</ele>
        <time>2022-10-22T15:52:00+02:00</time>
      </trkpt>
      <trkpt lat="43.44099" lon="3.7512">
        <ele>26</ele>
        <time>2022-10-22T15:52:28+02:00</time>
      </trkpt>
      <trkpt lat="43.44115" lon="3.75143">
        <ele>25</ele>
        <time>2022-10-22T15:52:45+02:00</time>
      </trkpt>
      <trkpt lat="43.44131" lon="3.75165">
        <ele>30</ele>
        <time>2022-10-22T15:53:01+02:00</time>
      </trkpt>
      <trkpt lat="43.44147" lon="3.75187">
        <ele>31</ele>
        <time>2022-10-22T15:53:22+02:00</time>
      </trkpt>
      <trkpt lat="43.44165" lon="3.75212">
        <ele>30</ele>
        <time>2022-10-22T15:53:41+02:00</time>
      </trkpt>
      <trkpt lat="43.44173" lon="3.75241">
        <ele>25</ele>
        <time>2022-10-22T15:54:03+02:00</time>
      </trkpt>
      <trkpt lat="43.4419" lon="3.75261">
        <ele>26</ele>
        <time>2022-10-22T15:54:25+02:00</time>
      </trkpt>
      <trkpt lat="43.44208" lon="3.75282">
        <ele>28</ele>
        <time>2022-10-22T15:54:42+02:00</time>
      </trkpt>
      <trkpt lat="43.44204" lon="3.75314">
        <ele>26</ele>
        <time>2022-10-22T15:55:10+02:00</time>
      </trkpt>
      <trkpt lat="43.44188" lon="3.75336">
        <ele>27</ele>
        <time>2022-10-22T15:55:31+02:00</time>
      </trkpt>
      <trkpt lat="43.44177" lon="3.75364">
        <ele>29</ele>
        <time>2022-10-22T15:55:49+02:00</time>
      </trkpt>
      <trkpt lat="43.44168" lon="3.75393">
        <ele>32</ele>
        <time>2022-10-22T15:56:10+02:00</time>
      </trkpt>
      <trkpt lat="43.44164" lon="3.75423">
        <ele>30</ele>
        <time>2022-10-22T15:56:31+02:00</time>
      </trkpt>
      <trkpt lat="43.44173" lon="3.75452">
        <ele>31</ele>
        <time>2022-10-22T15:56:58+02:00</time>
      </trkpt>
      <trkpt lat="43.44194" lon="3.75467">
        <ele>34</ele>
        <time>2022-10-22T15:57:19+02:00</time>
      </trkpt>
      <trkpt lat="43.44215" lon="3.75479">
        <ele>36</ele>
        <time>2022-10-22T15:57:37+02:00</time>
      </trkpt>
      <trkpt lat="43.44236" lon="3.75491">
        <ele>39</ele>
        <time>2022-10-22T15:57:59+02:00</time>
      </trkpt>
      <trkpt lat="43.44257" lon="3.75503">
        <ele>33</ele>
        <time>2022-10-22T15:58:20+02:00</time>
      </trkpt>
      <trkpt lat="43.44278" lon="3.75517">
        <ele>34</ele>
        <time>2022-10-22T15:58:43+02:00</time>
      </trkpt>
      <trkpt lat="43.443" lon="3.75528">
        <ele>35</ele>
        <time>2022-10-22T15:59:01+02:00</time>
      </trkpt>
      <trkpt lat="43.44322" lon="3.7554">
        <ele>38</ele>
        <time>2022-10-22T15:59:23+02:00</time>
      </trkpt>
      <trkpt lat="43.44343" lon="3.75552">
        <ele>37</ele>
        <time>2022-10-22T15:59:43+02:00</time>
      </trkpt>
      <trkpt lat="43.44361" lon="3.75573">
        <ele>28</ele>
        <time>2022-10-22T16:00:05+02:00</time>
      </trkpt>
      <trkpt lat="43.44372" lon="3.75601">
        <ele>28</ele>
        <time>2022-10-22T16:00:28+02:00</time>
      </trkpt>
      <trkpt lat="43.44384" lon="3.75627">
        <ele>28</ele>
        <time>2022-10-22T16:00:50+02:00</time>
      </trkpt>
      <trkpt lat="43.44399" lon="3.75651">
        <ele>31</ele>
        <time>2022-10-22T16:01:18+02:00</time>
      </trkpt>
      <trkpt lat="43.44422" lon="3.75653">
        <ele>35</ele>
        <time>2022-10-22T16:01:47+02:00</time>
      </trkpt>
      <trkpt lat="43.44444" lon="3.75661">
        <ele>33</ele>
        <time>2022-10-22T16:02:10+02:00</time>
      </trkpt>
      <trkpt lat="43.44459" lon="3.75684">
        <ele>30</ele>
        <time>2022-10-22T16:02:37+02:00</time>
      </trkpt>
      <trkpt lat="43.44482" lon="3.75675">
        <ele>33</ele>
        <time>2022-10-22T16:03:06+02:00</time>
      </trkpt>
      <trkpt lat="43.44494" lon="3.75648">
        <ele>31</ele>
        <time>2022-10-22T16:03:27+02:00</time>
      </trkpt>
      <trkpt lat="43.44508" lon="3.75621">
        <ele>38</ele>
        <time>2022-10-22T16:03:44+02:00</time>
      </trkpt>
    </trkseg>
  </trk>
</gpx>